createdAt,value
2018-07-21T00:02:28.172Z,12.97
2018-07-21T00:04:56.663Z,13.23
2018-07-21T00:07:26.075Z,11.93
2018-07-21T00:09:54.577Z,11.20
2018-07-21T00:12:23.121Z,11.53
2018-07-21T00:14:51.630Z,11.20
2018-07-21T00:17:20.187Z,11.73
2018-07-21T00:19:48.786Z,11.60
2018-07-21T00:22:17.353Z,10.67
2018-07-21T00:24:45.862Z,11.00
2018-07-21T00:27:14.481Z,11.10
2018-07-21T00:29:42.981Z,11.97
2018-07-21T00:32:11.494Z,12.70
2018-07-21T00:34:39.982Z,11.93
2018-07-21T00:37:08.542Z,12.93
2018-07-21T00:39:37.075Z,12.07
2018-07-21T00:42:05.634Z,11.93
2018-07-21T00:44:34.145Z,12.57
2018-07-21T00:47:02.758Z,12.93
2018-07-21T00:49:31.297Z,12.10
2018-07-21T00:51:59.867Z,12.77
2018-07-21T00:54:28.457Z,11.93
2018-07-21T00:56:56.982Z,12.07
2018-07-21T00:59:26.772Z,11.50
2018-07-21T01:01:55.282Z,11.37
2018-07-21T01:04:23.777Z,11.27
2018-07-21T01:06:52.310Z,11.93
2018-07-21T01:09:20.863Z,13.00
2018-07-21T01:11:49.426Z,12.20
2018-07-21T01:14:17.943Z,11.57
2018-07-21T01:16:46.521Z,10.63
2018-07-21T01:19:15.069Z,11.73
2018-07-21T01:21:43.598Z,12.23
2018-07-21T01:24:12.214Z,12.17
2018-07-21T01:26:40.789Z,12.20
2018-07-21T01:29:09.396Z,11.37
2018-07-21T01:31:37.963Z,11.20
2018-07-21T01:34:07.321Z,11.60
2018-07-21T01:36:35.861Z,11.90
2018-07-21T01:39:06.279Z,11.67
2018-07-21T01:41:34.790Z,11.40
2018-07-21T01:44:03.335Z,11.97
2018-07-21T01:46:31.898Z,12.10
2018-07-21T01:49:00.442Z,12.47
2018-07-21T01:51:28.995Z,12.10
2018-07-21T01:53:57.654Z,11.93
2018-07-21T01:56:26.418Z,11.90
2018-07-21T01:58:54.930Z,11.93
2018-07-21T02:01:23.485Z,11.93
2018-07-21T02:03:51.978Z,12.50
2018-07-21T02:06:20.505Z,13.00
2018-07-21T02:08:49.026Z,11.63
2018-07-21T02:11:17.541Z,12.63
2018-07-21T02:13:46.099Z,12.43
2018-07-21T02:16:14.618Z,11.43
2018-07-21T02:18:43.185Z,11.83
2018-07-21T02:21:11.814Z,12.63
2018-07-21T02:23:40.393Z,11.43
2018-07-21T02:26:08.953Z,12.20
2018-07-21T02:28:37.489Z,11.67
2018-07-21T02:31:06.065Z,11.27
2018-07-21T02:33:34.649Z,11.87
2018-07-21T02:36:03.162Z,11.77
2018-07-21T02:38:31.728Z,11.70
2018-07-21T02:41:00.265Z,11.60
2018-07-21T02:43:28.897Z,13.13
2018-07-21T02:45:57.444Z,13.20
2018-07-21T02:48:26.009Z,12.83
2018-07-21T02:50:54.532Z,12.03
2018-07-21T02:53:23.103Z,12.50
2018-07-21T02:55:51.634Z,12.23
2018-07-21T02:58:20.174Z,12.87
2018-07-21T03:00:48.673Z,13.20
2018-07-21T03:03:17.282Z,12.53
2018-07-21T03:05:45.788Z,12.10
2018-07-21T03:08:15.103Z,12.43
2018-07-21T03:10:43.988Z,11.73
2018-07-21T03:13:12.526Z,12.13
2018-07-21T03:15:41.127Z,11.87
2018-07-21T03:18:09.677Z,11.97
2018-07-21T03:20:38.199Z,11.87
2018-07-21T03:23:07.219Z,12.80
2018-07-21T03:25:36.755Z,11.73
2018-07-21T03:28:05.357Z,12.50
2018-07-21T03:30:33.871Z,12.10
2018-07-21T03:33:02.438Z,12.07
2018-07-21T03:35:30.917Z,12.37
2018-07-21T03:37:59.418Z,12.43
2018-07-21T03:40:27.994Z,12.13
2018-07-21T03:42:56.796Z,12.20
2018-07-21T03:45:25.876Z,11.67
2018-07-21T03:47:54.510Z,12.03
2018-07-21T03:50:23.650Z,12.03
2018-07-21T03:52:52.169Z,11.97
2018-07-21T03:55:20.738Z,11.70
2018-07-21T03:57:49.302Z,11.83
2018-07-21T04:00:17.845Z,11.33
2018-07-21T04:02:46.391Z,11.67
2018-07-21T04:05:14.922Z,11.57
2018-07-21T04:07:44.385Z,12.00
2018-07-21T04:10:12.914Z,11.57
2018-07-21T04:12:42.078Z,11.17
2018-07-21T04:15:10.599Z,10.93
2018-07-21T04:17:39.689Z,11.37
2018-07-21T04:20:08.239Z,11.90
2018-07-21T04:22:36.728Z,11.07
2018-07-21T04:25:05.622Z,11.27
2018-07-21T04:27:34.162Z,11.70
2018-07-21T04:30:02.788Z,10.90
2018-07-21T04:32:31.317Z,11.60
2018-07-21T04:34:59.918Z,10.77
2018-07-21T04:37:28.509Z,11.63
2018-07-21T04:39:57.026Z,11.33
2018-07-21T04:42:25.565Z,11.73
2018-07-21T04:44:54.137Z,10.87
2018-07-21T04:47:22.665Z,10.93
2018-07-21T04:49:51.226Z,12.37
2018-07-21T04:52:19.750Z,11.43
2018-07-21T04:54:48.286Z,10.90
2018-07-21T04:57:16.877Z,11.90
2018-07-21T04:59:45.428Z,11.50
2018-07-21T05:02:14.897Z,10.73
2018-07-21T05:04:43.445Z,11.60
2018-07-21T05:07:12.283Z,11.10
2018-07-21T05:09:40.834Z,11.10
2018-07-21T05:12:09.361Z,10.63
2018-07-21T05:14:37.931Z,10.50
2018-07-21T05:17:07.179Z,10.30
2018-07-21T05:19:36.461Z,10.30
2018-07-21T05:22:05.035Z,10.57
2018-07-21T05:24:33.601Z,10.17
2018-07-21T05:27:02.138Z,9.93
2018-07-21T05:29:31.425Z,9.53
2018-07-21T05:32:00.014Z,10.17
2018-07-21T05:34:29.722Z,10.17
2018-07-21T05:36:59.234Z,10.73
2018-07-21T05:39:28.691Z,10.27
2018-07-21T05:41:57.222Z,10.93
2018-07-21T05:44:26.547Z,10.73
2018-07-21T05:46:55.131Z,11.03
2018-07-21T05:49:23.698Z,10.00
2018-07-21T05:51:52.286Z,10.10
2018-07-21T05:54:20.822Z,10.20
2018-07-21T05:56:50.221Z,11.23
2018-07-21T05:59:18.917Z,13.27
2018-07-21T06:01:47.465Z,13.20
2018-07-21T06:04:16.222Z,13.27
2018-07-21T06:06:44.785Z,15.40
2018-07-21T06:09:13.925Z,14.60
2018-07-21T06:11:42.467Z,14.83
2018-07-21T06:14:12.231Z,13.73
2018-07-21T06:16:40.830Z,13.33
2018-07-21T06:19:09.351Z,13.73
2018-07-21T06:21:38.407Z,13.30
2018-07-21T06:24:06.937Z,14.60
2018-07-21T06:26:35.724Z,13.30
2018-07-21T06:29:04.298Z,14.07
2018-07-21T06:31:32.874Z,14.47
2018-07-21T06:34:01.408Z,14.23
2018-07-21T06:36:30.956Z,13.87
2018-07-21T06:38:59.818Z,13.33
2018-07-21T06:41:29.457Z,12.73
2018-07-21T06:43:58.094Z,13.83
2018-07-21T06:46:26.666Z,14.30
2018-07-21T06:48:55.190Z,13.23
2018-07-21T06:51:23.811Z,12.33
2018-07-21T06:53:52.381Z,12.63
2018-07-21T06:56:21.073Z,12.40
2018-07-21T06:58:51.328Z,11.87
2018-07-21T07:01:20.773Z,11.97
2018-07-21T07:03:49.345Z,11.23
2018-07-21T07:06:17.899Z,11.73
2018-07-21T07:08:46.422Z,11.07
2018-07-21T07:11:16.164Z,11.53
2018-07-21T07:13:44.703Z,11.27
2018-07-21T07:16:13.407Z,11.63
2018-07-21T07:18:42.514Z,10.80
2018-07-21T07:21:11.353Z,11.73
2018-07-21T07:23:40.175Z,10.70
2018-07-21T07:26:09.258Z,10.47
2018-07-21T07:28:38.919Z,10.70
2018-07-21T07:31:07.569Z,10.27
2018-07-21T07:33:36.917Z,10.33
2018-07-21T07:36:05.594Z,10.53
2018-07-21T07:38:36.328Z,9.73
2018-07-21T07:41:04.892Z,9.83
2018-07-21T07:43:33.663Z,9.20
2018-07-21T07:46:02.366Z,9.67
2018-07-21T07:48:30.917Z,10.00
2018-07-21T07:50:59.506Z,9.80
2018-07-21T07:53:28.131Z,9.57
2018-07-21T07:55:57.650Z,9.73
2018-07-21T07:58:26.347Z,9.43
2018-07-21T08:00:54.946Z,9.83
2018-07-21T08:03:23.746Z,10.30
2018-07-21T08:05:52.322Z,10.37
2018-07-21T08:08:20.907Z,10.63
2018-07-21T08:10:49.433Z,10.23
2018-07-21T08:13:17.990Z,9.70
2018-07-21T08:15:46.586Z,10.93
2018-07-21T08:18:15.130Z,12.10
2018-07-21T08:20:43.748Z,9.47
2018-07-21T08:23:12.319Z,10.43
2018-07-21T08:25:40.828Z,9.33
2018-07-21T08:28:09.526Z,10.20
2018-07-21T08:30:38.078Z,9.93
2018-07-21T08:33:06.748Z,9.27
2018-07-21T08:35:35.322Z,9.13
2018-07-21T08:38:04.533Z,9.33
2018-07-21T08:40:33.105Z,9.03
2018-07-21T08:43:01.638Z,9.77
2018-07-21T08:45:30.135Z,9.13
2018-07-21T08:47:58.644Z,9.00
2018-07-21T08:50:27.131Z,8.53
2018-07-21T08:52:55.642Z,9.60
2018-07-21T08:55:24.134Z,9.63
2018-07-21T08:57:55.675Z,9.37
2018-07-21T09:00:24.161Z,9.37
2018-07-21T09:02:52.671Z,9.30
2018-07-21T09:05:21.186Z,8.90
2018-07-21T09:07:57.060Z,9.17
2018-07-21T09:10:25.555Z,9.40
2018-07-21T09:12:54.081Z,10.20
2018-07-21T09:15:22.550Z,8.60
2018-07-21T09:17:56.152Z,8.70
2018-07-21T09:20:24.609Z,8.67
2018-07-21T09:22:53.126Z,8.40
2018-07-21T09:25:21.634Z,9.07
2018-07-21T09:27:53.516Z,9.17
2018-07-21T09:30:22.002Z,9.73
2018-07-21T09:32:50.510Z,9.10
2018-07-21T09:35:19.314Z,9.27
2018-07-21T09:37:47.822Z,8.53
2018-07-21T09:40:16.363Z,8.60
2018-07-21T09:42:44.913Z,8.30
2018-07-21T09:45:13.410Z,8.90
2018-07-21T09:47:41.939Z,9.00
2018-07-21T09:50:10.927Z,10.00
2018-07-21T09:52:39.850Z,8.53
2018-07-21T09:55:09.430Z,8.50
2018-07-21T09:57:38.482Z,8.83
2018-07-21T10:00:09.091Z,9.47
2018-07-21T10:02:37.730Z,8.57
2018-07-21T10:05:06.220Z,9.20
2018-07-21T10:07:34.754Z,9.50
2018-07-21T10:10:03.594Z,8.87
2018-07-21T10:12:32.151Z,11.23
2018-07-21T10:15:00.624Z,8.40
2018-07-21T10:17:29.119Z,11.57
2018-07-21T10:19:57.607Z,8.38
2018-07-21T10:22:26.546Z,10.13
2018-07-21T10:25:00.506Z,8.93
2018-07-21T10:27:34.394Z,9.50
2018-07-21T10:30:02.871Z,9.55
2018-07-21T10:32:37.125Z,10.48
2018-07-21T10:35:06.363Z,9.18
2018-07-21T10:37:34.893Z,9.20
2018-07-21T10:40:03.556Z,8.98
2018-07-21T10:42:32.074Z,9.10
2018-07-21T10:45:01.154Z,8.80
